createdAt,value
2018-03-31T00:01:17.865Z,5.80
2018-03-31T00:03:46.321Z,5.80
2018-03-31T00:06:14.848Z,5.90
2018-03-31T00:08:43.316Z,5.90
2018-03-31T00:11:11.809Z,6.00
2018-03-31T00:13:40.264Z,6.00
2018-03-31T00:16:08.744Z,6.10
2018-03-31T00:18:37.242Z,6.00
2018-03-31T00:21:05.731Z,6.00
2018-03-31T00:23:34.194Z,5.90
2018-03-31T00:26:02.694Z,5.90
2018-03-31T00:28:31.177Z,5.90
2018-03-31T00:31:00.406Z,6.00
2018-03-31T00:33:29.653Z,5.90
2018-03-31T00:35:58.126Z,5.90
2018-03-31T00:38:27.060Z,5.90
2018-03-31T00:40:55.495Z,5.90
2018-03-31T00:43:23.993Z,5.70
2018-03-31T00:45:52.463Z,5.70
2018-03-31T00:48:21.274Z,5.60
2018-03-31T00:50:49.738Z,5.60
2018-03-31T00:53:18.494Z,5.60
2018-03-31T00:55:46.943Z,5.50
2018-03-31T00:58:16.910Z,5.50
2018-03-31T01:00:45.372Z,5.50
2018-03-31T01:03:13.822Z,5.50
2018-03-31T01:05:42.294Z,5.50
2018-03-31T01:08:10.763Z,5.50
2018-03-31T01:10:39.310Z,5.30
2018-03-31T01:13:07.754Z,5.30
2018-03-31T01:15:36.218Z,5.20
2018-03-31T01:18:04.659Z,5.10
2018-03-31T01:20:33.130Z,5.00
2018-03-31T01:23:01.620Z,5.00
2018-03-31T01:25:30.078Z,5.00
2018-03-31T01:27:59.311Z,4.90
2018-03-31T01:30:27.813Z,4.90
2018-03-31T01:32:56.306Z,4.90
2018-03-31T01:35:24.767Z,4.80
2018-03-31T01:37:53.238Z,4.90
2018-03-31T01:40:21.681Z,4.90
2018-03-31T01:42:50.166Z,4.90
2018-03-31T01:45:18.619Z,4.90
2018-03-31T01:47:47.073Z,5.00
2018-03-31T01:50:15.543Z,5.00
2018-03-31T01:52:43.996Z,4.90
2018-03-31T01:55:13.259Z,4.80
2018-03-31T01:57:41.729Z,4.70
2018-03-31T02:00:10.194Z,4.70
2018-03-31T02:02:38.652Z,4.70
2018-03-31T02:05:07.125Z,4.80
2018-03-31T02:07:35.803Z,4.80
2018-03-31T02:10:04.260Z,4.80
2018-03-31T02:12:32.741Z,4.80
2018-03-31T02:15:01.200Z,4.90
2018-03-31T02:17:29.657Z,4.90
2018-03-31T02:19:58.115Z,5.00
2018-03-31T02:22:27.329Z,5.00
2018-03-31T02:24:56.288Z,5.00
2018-03-31T02:27:24.749Z,5.00
2018-03-31T02:29:53.254Z,5.00
2018-03-31T02:32:21.703Z,5.00
2018-03-31T02:34:50.288Z,5.00
2018-03-31T02:37:18.734Z,5.00
2018-03-31T02:39:47.971Z,5.00
2018-03-31T02:42:16.442Z,5.00
2018-03-31T02:44:44.903Z,4.80
2018-03-31T02:47:13.361Z,4.80
2018-03-31T02:49:41.855Z,4.80
2018-03-31T02:52:10.327Z,4.90
2018-03-31T02:54:38.779Z,4.90
2018-03-31T02:57:07.414Z,4.90
2018-03-31T02:59:36.630Z,4.90
2018-03-31T03:02:05.106Z,4.90
2018-03-31T03:04:33.545Z,4.80
2018-03-31T03:07:02.154Z,4.80
2018-03-31T03:09:30.606Z,4.80
2018-03-31T03:11:59.078Z,4.80
2018-03-31T03:14:27.524Z,4.80
2018-03-31T03:16:55.657Z,4.90
2018-03-31T03:19:23.805Z,4.90
2018-03-31T03:21:51.938Z,4.90
2018-03-31T03:24:20.881Z,5.00
2018-03-31T03:26:49.198Z,4.90
2018-03-31T03:29:17.484Z,5.00
2018-03-31T03:31:45.637Z,5.00
2018-03-31T03:34:13.833Z,4.90
2018-03-31T03:36:42.009Z,4.80
2018-03-31T03:39:10.141Z,4.80
2018-03-31T03:41:38.278Z,4.80
2018-03-31T03:44:06.426Z,4.80
2018-03-31T03:46:35.315Z,4.70
2018-03-31T03:49:04.290Z,4.70
2018-03-31T03:51:32.422Z,4.70
2018-03-31T03:54:00.548Z,4.70
2018-03-31T03:56:29.458Z,4.80
2018-03-31T03:58:57.617Z,4.70
2018-03-31T04:01:25.786Z,4.80
2018-03-31T04:03:54.786Z,4.70
2018-03-31T04:06:23.054Z,4.70
2018-03-31T04:08:51.219Z,4.70
2018-03-31T04:11:19.407Z,4.70
2018-03-31T04:13:47.530Z,4.70
2018-03-31T04:16:15.694Z,4.70
2018-03-31T04:18:43.868Z,4.70
2018-03-31T04:21:11.989Z,4.70
2018-03-31T04:23:40.125Z,4.80
2018-03-31T04:26:08.262Z,4.80
2018-03-31T04:28:36.419Z,4.90
2018-03-31T04:31:04.565Z,4.90
2018-03-31T04:33:32.738Z,5.00
2018-03-31T04:36:00.889Z,5.00
2018-03-31T04:38:29.034Z,5.00
2018-03-31T04:40:57.183Z,5.10
2018-03-31T04:43:25.329Z,5.10
2018-03-31T04:45:53.524Z,5.00
2018-03-31T04:48:21.709Z,5.00
2018-03-31T04:50:49.821Z,5.00
2018-03-31T04:53:17.957Z,4.90
2018-03-31T04:55:46.107Z,4.90
2018-03-31T04:58:14.309Z,4.90
2018-03-31T05:00:43.249Z,4.90
2018-03-31T05:03:11.511Z,4.90
2018-03-31T05:05:40.429Z,4.80
2018-03-31T05:08:08.565Z,4.80
2018-03-31T05:10:36.723Z,4.80
2018-03-31T05:13:04.907Z,4.80
2018-03-31T05:15:33.054Z,4.80
2018-03-31T05:18:01.190Z,4.70
2018-03-31T05:20:29.336Z,4.70
2018-03-31T05:22:57.486Z,4.70
2018-03-31T05:25:25.640Z,4.70
2018-03-31T05:27:53.882Z,4.70
2018-03-31T05:30:22.016Z,4.60
2018-03-31T05:32:50.177Z,4.50
2018-03-31T05:35:18.309Z,4.60
2018-03-31T05:37:46.445Z,4.60
2018-03-31T05:40:14.603Z,4.60
2018-03-31T05:42:42.739Z,4.70
2018-03-31T05:45:10.964Z,4.70
2018-03-31T05:47:39.153Z,4.70
2018-03-31T05:50:07.301Z,4.80
2018-03-31T05:52:35.431Z,4.80
2018-03-31T05:55:03.585Z,4.80
2018-03-31T05:57:31.711Z,5.00
2018-03-31T05:59:59.858Z,5.10
2018-03-31T06:02:28.012Z,5.10
2018-03-31T06:04:56.142Z,5.20
2018-03-31T06:07:24.328Z,5.30
2018-03-31T06:09:52.540Z,5.50
2018-03-31T06:12:21.461Z,5.80
2018-03-31T06:14:49.599Z,5.70
2018-03-31T06:17:17.783Z,5.90
2018-03-31T06:19:45.905Z,6.20
2018-03-31T06:22:14.109Z,6.30
2018-03-31T06:24:42.268Z,6.40
2018-03-31T06:27:10.438Z,6.60
2018-03-31T06:29:38.587Z,6.80
2018-03-31T06:32:06.718Z,7.10
2018-03-31T06:34:34.875Z,7.40
2018-03-31T06:37:03.818Z,8.10
2018-03-31T06:39:31.981Z,8.00
2018-03-31T06:42:00.140Z,9.20
2018-03-31T06:44:28.273Z,10.30
2018-03-31T06:46:56.424Z,10.90
2018-03-31T06:49:24.582Z,11.10
2018-03-31T06:51:52.759Z,11.20
2018-03-31T06:54:21.667Z,13.00
2018-03-31T06:56:49.821Z,13.00
2018-03-31T06:59:17.969Z,13.50
2018-03-31T07:01:46.110Z,14.40
2018-03-31T07:04:14.274Z,15.20
2018-03-31T07:06:42.415Z,15.90
2018-03-31T07:09:10.572Z,16.90
2018-03-31T07:11:39.483Z,18.60
2018-03-31T07:14:08.404Z,19.50
2018-03-31T07:16:36.533Z,19.50
2018-03-31T07:19:04.697Z,20.50
2018-03-31T07:21:32.946Z,21.50
2018-03-31T07:24:01.091Z,22.10
2018-03-31T07:26:30.018Z,22.00
2018-03-31T07:28:58.155Z,22.00
2018-03-31T07:31:26.299Z,22.70
2018-03-31T07:33:54.471Z,22.10
2018-03-31T07:36:22.609Z,21.30
2018-03-31T07:38:50.778Z,20.00
2018-03-31T07:41:18.926Z,19.80
2018-03-31T07:43:47.269Z,20.30
2018-03-31T07:46:16.190Z,21.50
2018-03-31T07:48:45.106Z,21.70
2018-03-31T07:51:13.274Z,21.80
2018-03-31T07:53:41.413Z,22.60
2018-03-31T07:56:10.334Z,22.70
2018-03-31T07:58:38.479Z,22.70
2018-03-31T08:01:06.652Z,21.50
2018-03-31T08:03:34.821Z,21.40
2018-03-31T08:06:02.965Z,21.10
2018-03-31T08:08:31.202Z,22.20
2018-03-31T08:11:00.087Z,23.00
2018-03-31T08:13:29.042Z,22.80
2018-03-31T08:15:57.206Z,22.80
2018-03-31T08:18:25.368Z,23.20
2018-03-31T08:20:53.518Z,23.60
2018-03-31T08:23:21.712Z,24.00
2018-03-31T08:25:49.875Z,24.80
2018-03-31T08:28:18.011Z,25.10
2018-03-31T08:30:46.171Z,25.50
2018-03-31T08:33:14.352Z,25.60
2018-03-31T08:35:42.503Z,25.40
2018-03-31T08:38:10.654Z,23.40
2018-03-31T08:40:38.804Z,23.90
2018-03-31T08:43:06.982Z,24.30
2018-03-31T08:45:35.134Z,26.40
2018-03-31T08:48:03.315Z,28.10
2018-03-31T08:50:31.564Z,29.30
2018-03-31T08:52:59.706Z,28.90
2018-03-31T08:55:27.892Z,28.60
2018-03-31T08:57:56.067Z,27.30
2018-03-31T09:00:24.230Z,26.80
2018-03-31T09:02:52.389Z,27.60
2018-03-31T09:05:20.549Z,28.20
2018-03-31T09:07:49.483Z,26.70
2018-03-31T09:10:17.901Z,26.70
2018-03-31T09:12:46.146Z,27.90
2018-03-31T09:15:14.339Z,28.10
2018-03-31T09:17:42.736Z,27.90
2018-03-31T09:20:10.905Z,27.40
2018-03-31T09:22:39.045Z,28.10
2018-03-31T09:25:07.286Z,27.50
2018-03-31T09:27:35.439Z,27.00
2018-03-31T09:30:03.604Z,25.50
2018-03-31T09:32:31.746Z,24.60
2018-03-31T09:34:59.919Z,24.40
2018-03-31T09:37:28.090Z,25.90
2018-03-31T09:39:56.251Z,24.70
2018-03-31T09:42:24.372Z,24.70
2018-03-31T09:44:52.556Z,26.00
2018-03-31T09:47:20.681Z,27.60
2018-03-31T09:49:48.829Z,29.10
2018-03-31T09:52:17.745Z,28.50
2018-03-31T09:54:45.902Z,28.50
2018-03-31T09:57:14.081Z,28.20
2018-03-31T09:59:42.226Z,28.70
2018-03-31T10:02:10.542Z,28.50
2018-03-31T10:04:38.706Z,29.10
2018-03-31T10:07:07.610Z,30.60
2018-03-31T10:09:35.771Z,30.50
2018-03-31T10:12:03.919Z,28.60
2018-03-31T10:14:33.846Z,27.10
2018-03-31T10:17:02.190Z,27.10
2018-03-31T10:19:30.374Z,28.20
2018-03-31T10:21:58.506Z,29.10
2018-03-31T10:24:26.686Z,29.10
2018-03-31T10:26:54.825Z,27.60
2018-03-31T10:29:23.743Z,27.00
2018-03-31T10:31:51.882Z,27.00
2018-03-31T10:34:20.038Z,27.80
2018-03-31T10:36:48.205Z,28.60
2018-03-31T10:39:16.365Z,28.50
2018-03-31T10:41:44.636Z,28.00
2018-03-31T10:44:13.054Z,28.00
2018-03-31T10:46:41.226Z,28.30
2018-03-31T10:49:09.419Z,28.30
2018-03-31T10:51:37.556Z,28.60
2018-03-31T10:54:05.753Z,28.90
2018-03-31T10:56:33.883Z,28.50
2018-03-31T10:59:02.055Z,28.80
2018-03-31T11:01:30.214Z,27.80
2018-03-31T11:03:58.353Z,27.40
2018-03-31T11:06:26.513Z,27.60
2018-03-31T11:08:54.670Z,27.70
2018-03-31T11:11:22.854Z,27.10
2018-03-31T11:13:51.022Z,26.60
2018-03-31T11:16:19.174Z,27.20
2018-03-31T11:18:47.420Z,26.70
2018-03-31T11:21:15.566Z,27.50
2018-03-31T11:23:43.859Z,26.20
2018-03-31T11:26:12.070Z,25.30
2018-03-31T11:28:41.051Z,25.20
2018-03-31T11:31:09.994Z,24.50
2018-03-31T11:33:38.139Z,24.40
2018-03-31T11:36:06.334Z,23.90
2018-03-31T11:38:34.560Z,23.20
2018-03-31T11:41:02.660Z,22.80
2018-03-31T11:43:31.049Z,21.70
2018-03-31T11:45:59.283Z,21.30
2018-03-31T11:48:27.453Z,21.00
2018-03-31T11:50:57.098Z,22.20
2018-03-31T11:53:26.017Z,22.90
2018-03-31T11:55:54.179Z,22.90
2018-03-31T11:58:22.330Z,23.50
2018-03-31T12:00:51.339Z,22.10
2018-03-31T12:03:19.434Z,22.10
2018-03-31T12:05:47.619Z,21.30
2018-03-31T12:08:15.791Z,20.10
2018-03-31T12:10:43.923Z,19.20
2018-03-31T12:13:12.826Z,18.10
2018-03-31T12:15:41.110Z,18.00
2018-03-31T12:18:09.262Z,17.60
2018-03-31T12:20:37.412Z,18.10
2018-03-31T12:23:05.818Z,18.20
2018-03-31T12:25:34.726Z,18.10
2018-03-31T12:28:02.904Z,18.00
2018-03-31T12:30:31.040Z,18.10
2018-03-31T12:32:59.196Z,17.90
2018-03-31T12:35:27.416Z,17.80
2018-03-31T12:37:55.486Z,17.70
2018-03-31T12:40:23.649Z,17.00
2018-03-31T12:42:52.579Z,16.60
2018-03-31T12:45:20.730Z,16.60
2018-03-31T12:47:48.920Z,16.50
2018-03-31T12:50:17.078Z,16.60
2018-03-31T12:52:45.623Z,16.80
2018-03-31T12:55:13.873Z,17.00
2018-03-31T12:57:42.312Z,17.40
2018-03-31T13:00:10.499Z,17.20
2018-03-31T13:02:38.635Z,17.00
2018-03-31T13:05:06.786Z,16.80
2018-03-31T13:07:34.955Z,16.50
2018-03-31T13:10:03.089Z,16.20
2018-03-31T13:12:31.254Z,16.00
2018-03-31T13:14:59.418Z,15.90
2018-03-31T13:17:29.067Z,15.70
2018-03-31T13:19:57.958Z,15.70
2018-03-31T13:22:26.116Z,15.70
2018-03-31T13:24:54.277Z,15.70
2018-03-31T13:27:23.177Z,15.80
2018-03-31T13:29:51.376Z,15.80
2018-03-31T13:32:19.528Z,15.80
2018-03-31T13:34:47.793Z,16.20
2018-03-31T13:37:15.962Z,16.70
2018-03-31T13:39:44.125Z,17.10
2018-03-31T13:42:12.294Z,17.10
2018-03-31T13:44:40.500Z,17.30
2018-03-31T13:47:08.658Z,17.60
2018-03-31T13:49:36.799Z,17.50
2018-03-31T13:52:04.979Z,17.60
2018-03-31T13:54:33.133Z,18.00
2018-03-31T13:57:01.308Z,17.90
2018-03-31T13:59:29.469Z,17.60
2018-03-31T14:01:57.613Z,17.40
2018-03-31T14:04:25.830Z,17.50
2018-03-31T14:06:54.198Z,17.30
2018-03-31T14:09:23.169Z,17.10
2018-03-31T14:11:51.345Z,17.00
2018-03-31T14:14:20.248Z,17.50
2018-03-31T14:16:49.188Z,17.60
2018-03-31T14:19:17.341Z,17.60
2018-03-31T14:21:45.681Z,17.60
2018-03-31T14:24:13.962Z,17.30
2018-03-31T14:26:43.169Z,17.40
2018-03-31T14:29:11.332Z,17.40
2018-03-31T14:31:40.299Z,16.70
2018-03-31T14:34:08.505Z,16.70
2018-03-31T14:36:37.426Z,16.50
2018-03-31T14:39:05.579Z,16.50
2018-03-31T14:41:34.513Z,16.80
2018-03-31T14:44:02.841Z,16.80
2018-03-31T14:46:31.742Z,16.70
2018-03-31T14:49:00.750Z,16.50
2018-03-31T14:51:28.909Z,16.50
2018-03-31T14:53:57.851Z,15.90
2018-03-31T14:56:26.008Z,15.90
2018-03-31T14:58:54.147Z,15.90
2018-03-31T15:01:22.428Z,15.80
2018-03-31T15:03:50.530Z,15.70
2018-03-31T15:06:18.695Z,15.30
2018-03-31T15:08:46.870Z,15.30
2018-03-31T15:11:15.770Z,15.40
2018-03-31T15:13:43.918Z,15.40
2018-03-31T15:16:12.069Z,15.10
2018-03-31T15:18:40.228Z,15.30
2018-03-31T15:21:08.395Z,15.40
2018-03-31T15:23:36.702Z,15.60
2018-03-31T15:26:04.854Z,15.70
2018-03-31T15:28:33.057Z,16.10
2018-03-31T15:31:01.178Z,15.90
2018-03-31T15:33:29.348Z,16.00
2018-03-31T15:35:57.486Z,16.10
2018-03-31T15:38:25.626Z,16.10
2018-03-31T15:40:53.793Z,16.20
2018-03-31T15:43:21.937Z,16.30
2018-03-31T15:45:50.110Z,16.10
2018-03-31T15:48:18.285Z,16.00
2018-03-31T15:50:47.381Z,15.90
2018-03-31T15:53:16.273Z,15.50
2018-03-31T15:55:45.201Z,15.50
2018-03-31T15:58:13.364Z,15.50
2018-03-31T16:00:41.512Z,15.50
2018-03-31T16:03:10.483Z,15.40
2018-03-31T16:05:38.629Z,15.40
2018-03-31T16:08:06.822Z,15.30
2018-03-31T16:10:34.974Z,15.30
2018-03-31T16:13:03.131Z,15.10
2018-03-31T16:15:31.952Z,15.00
2018-03-31T16:18:00.094Z,15.00
2018-03-31T16:20:28.234Z,14.80
2018-03-31T16:22:56.411Z,14.70
2018-03-31T16:25:25.334Z,14.50
2018-03-31T16:27:53.473Z,14.50
2018-03-31T16:30:21.634Z,14.50
2018-03-31T16:32:49.789Z,14.40
2018-03-31T16:35:17.922Z,14.50
2018-03-31T16:37:46.261Z,14.40
2018-03-31T16:40:14.461Z,14.40
2018-03-31T16:42:42.614Z,14.40
2018-03-31T16:45:10.772Z,14.40
2018-03-31T16:47:38.935Z,14.40
2018-03-31T16:50:07.121Z,14.30
2018-03-31T16:52:35.447Z,14.20
2018-03-31T16:55:03.601Z,14.10
2018-03-31T16:57:31.824Z,14.00
2018-03-31T16:59:59.990Z,13.90
2018-03-31T17:02:28.163Z,13.70
2018-03-31T17:04:56.330Z,13.60
2018-03-31T17:07:24.508Z,13.60
2018-03-31T17:09:52.727Z,13.40
2018-03-31T17:12:21.577Z,13.20
2018-03-31T17:14:49.850Z,13.20
2018-03-31T17:17:18.786Z,13.20
2018-03-31T17:19:46.966Z,13.10
2018-03-31T17:22:15.173Z,13.20
2018-03-31T17:24:43.314Z,13.10
2018-03-31T17:27:11.488Z,13.00
2018-03-31T17:29:39.625Z,12.90
2018-03-31T17:32:07.782Z,12.80
2018-03-31T17:34:36.721Z,12.60
2018-03-31T17:37:04.860Z,12.50
2018-03-31T17:39:33.019Z,12.40
2018-03-31T17:42:01.226Z,12.30
2018-03-31T17:44:29.365Z,12.10
2018-03-31T17:46:58.274Z,11.80
2018-03-31T17:49:27.207Z,11.80
2018-03-31T17:51:55.378Z,11.70
2018-03-31T17:54:23.528Z,11.60
2018-03-31T17:56:51.734Z,11.40
2018-03-31T17:59:19.909Z,11.30
2018-03-31T18:01:48.078Z,11.20
2018-03-31T18:04:16.414Z,11.10
2018-03-31T18:06:45.369Z,10.90
2018-03-31T18:09:13.508Z,10.90
2018-03-31T18:11:41.678Z,10.80
2018-03-31T18:14:09.802Z,10.80
2018-03-31T18:16:37.941Z,10.70
2018-03-31T18:19:06.107Z,10.60
2018-03-31T18:21:34.262Z,10.60
2018-03-31T18:24:02.402Z,10.50
2018-03-31T18:26:30.586Z,10.40
2018-03-31T18:28:58.738Z,10.30
2018-03-31T18:31:26.905Z,10.30
2018-03-31T18:33:55.112Z,10.20
2018-03-31T18:36:23.234Z,10.20
2018-03-31T18:38:52.130Z,10.10
2018-03-31T18:41:20.367Z,10.20
2018-03-31T18:43:49.309Z,9.90
2018-03-31T18:46:17.455Z,9.90
2018-03-31T18:48:45.593Z,9.90
2018-03-31T18:51:13.769Z,9.90
2018-03-31T18:53:41.923Z,9.70
2018-03-31T18:56:10.059Z,9.70
2018-03-31T18:58:38.234Z,9.80
2018-03-31T19:01:06.387Z,9.80
2018-03-31T19:03:35.355Z,9.80
2018-03-31T19:06:03.651Z,9.80
2018-03-31T19:08:31.926Z,9.70
2018-03-31T19:11:00.081Z,9.70
2018-03-31T19:13:28.238Z,9.70
2018-03-31T19:15:56.411Z,9.70
2018-03-31T19:18:24.534Z,9.60
2018-03-31T19:20:53.498Z,9.50
2018-03-31T19:23:21.650Z,9.50
2018-03-31T19:25:49.802Z,9.50
2018-03-31T19:28:17.959Z,9.60
2018-03-31T19:30:50.975Z,9.50
2018-03-31T19:33:19.213Z,9.50
2018-03-31T19:35:52.733Z,9.50
2018-03-31T19:38:20.886Z,9.50
2018-03-31T19:40:49.034Z,9.50
2018-03-31T19:43:17.190Z,9.50
2018-03-31T19:45:45.331Z,9.50
2018-03-31T19:48:13.766Z,9.50
2018-03-31T19:50:43.406Z,9.50
2018-03-31T19:53:12.338Z,9.40
2018-03-31T19:55:40.507Z,9.40
2018-03-31T19:58:08.720Z,9.40
2018-03-31T20:00:36.870Z,9.30
2018-03-31T20:03:05.006Z,9.40
2018-03-31T20:05:34.465Z,9.40
2018-03-31T20:08:02.605Z,9.30
2018-03-31T20:10:30.795Z,9.40
2018-03-31T20:12:58.941Z,9.40
2018-03-31T20:15:27.129Z,9.40
2018-03-31T20:17:55.265Z,9.40
2018-03-31T20:20:24.200Z,9.40
2018-03-31T20:22:52.342Z,9.40
2018-03-31T20:25:21.265Z,9.50
2018-03-31T20:27:49.611Z,9.40
2018-03-31T20:30:17.743Z,9.40
2018-03-31T20:32:45.934Z,9.30
2018-03-31T20:35:14.103Z,9.20
2018-03-31T20:37:42.279Z,9.10
2018-03-31T20:40:10.484Z,9.00
2018-03-31T20:42:38.825Z,9.00
2018-03-31T20:45:06.959Z,8.90
2018-03-31T20:47:35.137Z,8.90
2018-03-31T20:50:03.300Z,9.00
2018-03-31T20:52:31.417Z,9.00
2018-03-31T20:54:59.547Z,9.10
2018-03-31T20:57:27.710Z,9.20
2018-03-31T20:59:55.871Z,9.30
2018-03-31T21:02:24.001Z,9.50
2018-03-31T21:04:52.345Z,9.50
2018-03-31T21:07:21.299Z,9.60
2018-03-31T21:09:49.466Z,9.60
2018-03-31T21:12:17.638Z,9.60
2018-03-31T21:14:45.786Z,9.70
2018-03-31T21:17:13.956Z,9.70
2018-03-31T21:19:42.100Z,9.70
2018-03-31T21:22:10.222Z,9.60
2018-03-31T21:24:38.383Z,9.60
2018-03-31T21:27:06.547Z,9.60
2018-03-31T21:29:34.755Z,9.70
2018-03-31T21:32:02.897Z,9.70
2018-03-31T21:34:31.423Z,9.80
2018-03-31T21:36:59.678Z,9.70
2018-03-31T21:39:27.856Z,9.70
2018-03-31T21:41:55.997Z,9.70
2018-03-31T21:44:24.935Z,9.90
2018-03-31T21:46:53.101Z,9.90
2018-03-31T21:49:21.280Z,9.90
2018-03-31T21:51:49.445Z,9.90
2018-03-31T21:54:17.561Z,9.90
2018-03-31T21:56:45.726Z,9.80
2018-03-31T21:59:13.875Z,9.80
2018-03-31T22:01:42.040Z,9.80
2018-03-31T22:04:10.184Z,9.70
2018-03-31T22:06:38.359Z,9.70
2018-03-31T22:09:07.325Z,9.70
2018-03-31T22:11:35.647Z,9.70
2018-03-31T22:14:09.530Z,9.70
2018-03-31T22:16:37.680Z,9.70
2018-03-31T22:19:05.846Z,9.50
2018-03-31T22:21:34.019Z,9.50
2018-03-31T22:24:02.202Z,9.40
2018-03-31T22:26:31.249Z,9.40
2018-03-31T22:28:59.704Z,9.40
2018-03-31T22:31:28.038Z,9.30
2018-03-31T22:33:56.193Z,9.20
2018-03-31T22:36:24.354Z,9.20
2018-03-31T22:38:52.493Z,9.20
2018-03-31T22:41:20.640Z,9.20
2018-03-31T22:43:48.807Z,9.20
2018-03-31T22:46:16.994Z,9.20
2018-03-31T22:48:45.126Z,9.30
2018-03-31T22:51:13.264Z,9.30
2018-03-31T22:53:41.418Z,9.30
2018-03-31T22:56:09.593Z,9.40
2018-03-31T22:58:37.763Z,9.40
2018-03-31T23:01:05.922Z,9.40
2018-03-31T23:03:34.394Z,9.50
2018-03-31T23:06:02.866Z,9.50
2018-03-31T23:08:31.336Z,9.50
2018-03-31T23:11:00.733Z,9.40
2018-03-31T23:13:29.198Z,9.40
2018-03-31T23:15:57.668Z,9.50
2018-03-31T23:18:26.134Z,9.40
2018-03-31T23:20:54.595Z,9.40
2018-03-31T23:23:23.088Z,9.40
2018-03-31T23:25:51.601Z,9.40
2018-03-31T23:28:20.184Z,9.50
2018-03-31T23:30:48.652Z,9.50
2018-03-31T23:33:17.179Z,9.50
2018-03-31T23:35:46.394Z,9.50
2018-03-31T23:38:15.329Z,9.50
2018-03-31T23:40:43.665Z,9.50
2018-03-31T23:43:11.814Z,9.50
2018-03-31T23:45:39.969Z,9.60
2018-03-31T23:48:08.133Z,9.60
2018-03-31T23:50:36.292Z,9.60
2018-03-31T23:53:04.453Z,9.60
2018-03-31T23:55:32.574Z,9.50
2018-03-31T23:58:00.731Z,9.40
